sensor_id;sensor_type;location;lat;lon;timestamp;P1;durP1;ratioP1;P2;durP2;ratioP2
36233;SDS011;43467;50.890;5.982;2022-11-15T00:02:05;12.20;;;8.57;;
36233;SDS011;43467;50.890;5.982;2022-11-15T00:04:30;14.90;;;8.70;;
36233;SDS011;43467;50.890;5.982;2022-11-15T00:06:55;11.02;;;7.75;;
36233;SDS011;43467;50.890;5.982;2022-11-15T00:09:21;12.80;;;8.95;;
36233;SDS011;43467;50.890;5.982;2022-11-15T00:11:46;17.33;;;9.15;;
36233;SDS011;43467;50.890;5.982;2022-11-15T00:14:12;14.02;;;8.57;;
36233;SDS011;43467;50.890;5.982;2022-11-15T00:16:37;13.48;;;8.23;;
36233;SDS011;43467;50.890;5.982;2022-11-15T00:19:02;10.45;;;7.40;;
36233;SDS011;43467;50.890;5.982;2022-11-15T00:21:28;14.45;;;8.63;;
36233;SDS011;43467;50.890;5.982;2022-11-15T00:23:53;14.30;;;8.20;;
36233;SDS011;43467;50.890;5.982;2022-11-15T00:26:18;14.32;;;8.52;;
36233;SDS011;43467;50.890;5.982;2022-11-15T00:28:44;15.18;;;8.02;;
36233;SDS011;43467;50.890;5.982;2022-11-15T00:31:12;13.43;;;7.90;;
36233;SDS011;43467;50.890;5.982;2022-11-15T00:33:38;12.60;;;7.72;;
36233;SDS011;43467;50.890;5.982;2022-11-15T00:36:04;13.98;;;6.95;;
36233;SDS011;43467;50.890;5.982;2022-11-15T00:38:35;13.18;;;7.53;;
36233;SDS011;43467;50.890;5.982;2022-11-15T00:41:02;13.00;;;7.47;;
36233;SDS011;43467;50.890;5.982;2022-11-15T00:43:29;15.30;;;9.00;;
36233;SDS011;43467;50.890;5.982;2022-11-15T00:45:55;11.75;;;7.57;;
36233;SDS011;43467;50.890;5.982;2022-11-15T00:48:20;13.68;;;7.57;;
36233;SDS011;43467;50.890;5.982;2022-11-15T00:50:46;11.27;;;8.07;;
36233;SDS011;43467;50.890;5.982;2022-11-15T00:53:12;11.55;;;6.88;;
36233;SDS011;43467;50.890;5.982;2022-11-15T00:55:37;11.82;;;7.03;;
36233;SDS011;43467;50.890;5.982;2022-11-15T00:58:02;13.27;;;7.88;;
36233;SDS011;43467;50.890;5.982;2022-11-15T01:00:28;9.32;;;7.22;;
36233;SDS011;43467;50.890;5.982;2022-11-15T01:02:53;10.00;;;7.03;;
36233;SDS011;43467;50.890;5.982;2022-11-15T01:05:19;10.73;;;7.32;;
36233;SDS011;43467;50.890;5.982;2022-11-15T01:07:44;10.57;;;7.50;;
36233;SDS011;43467;50.890;5.982;2022-11-15T01:10:09;14.68;;;7.22;;
36233;SDS011;43467;50.890;5.982;2022-11-15T01:12:35;10.32;;;6.38;;
36233;SDS011;43467;50.890;5.982;2022-11-15T01:15:00;11.73;;;7.22;;
36233;SDS011;43467;50.890;5.982;2022-11-15T01:17:26;12.07;;;7.05;;
36233;SDS011;43467;50.890;5.982;2022-11-15T01:19:52;11.07;;;7.05;;
36233;SDS011;43467;50.890;5.982;2022-11-15T01:22:17;12.48;;;6.10;;
36233;SDS011;43467;50.890;5.982;2022-11-15T01:24:43;9.10;;;6.30;;
36233;SDS011;43467;50.890;5.982;2022-11-15T01:27:08;9.35;;;6.72;;
36233;SDS011;43467;50.890;5.982;2022-11-15T01:29:34;10.80;;;6.43;;
36233;SDS011;43467;50.890;5.982;2022-11-15T01:31:59;10.02;;;6.50;;
36233;SDS011;43467;50.890;5.982;2022-11-15T01:34:25;9.93;;;5.90;;
36233;SDS011;43467;50.890;5.982;2022-11-15T01:36:50;10.13;;;6.18;;
36233;SDS011;43467;50.890;5.982;2022-11-15T01:39:16;8.50;;;6.00;;
36233;SDS011;43467;50.890;5.982;2022-11-15T01:41:41;7.63;;;5.60;;
36233;SDS011;43467;50.890;5.982;2022-11-15T01:47:14;12.20;;;6.25;;
36233;SDS011;43467;50.890;5.982;2022-11-15T01:49:46;8.82;;;6.25;;
36233;SDS011;43467;50.890;5.982;2022-11-15T01:52:18;8.50;;;4.93;;
36233;SDS011;43467;50.890;5.982;2022-11-15T01:54:46;8.27;;;5.43;;
36233;SDS011;43467;50.890;5.982;2022-11-15T01:57:15;13.13;;;6.00;;
36233;SDS011;43467;50.890;5.982;2022-11-15T01:59:41;12.45;;;5.47;;
36233;SDS011;43467;50.890;5.982;2022-11-15T02:02:09;7.10;;;5.05;;
36233;SDS011;43467;50.890;5.982;2022-11-15T02:04:41;10.93;;;5.68;;
36233;SDS011;43467;50.890;5.982;2022-11-15T02:07:08;10.07;;;5.40;;
36233;SDS011;43467;50.890;5.982;2022-11-15T02:09:37;8.27;;;5.38;;
36233;SDS011;43467;50.890;5.982;2022-11-15T02:12:03;9.27;;;5.63;;
36233;SDS011;43467;50.890;5.982;2022-11-15T02:14:29;6.32;;;4.93;;
36233;SDS011;43467;50.890;5.982;2022-11-15T02:17:12;7.40;;;4.90;;
36233;SDS011;43467;50.890;5.982;2022-11-15T02:22:51;9.40;;;5.10;;
36233;SDS011;43467;50.890;5.982;2022-11-15T02:25:31;8.30;;;5.53;;
36233;SDS011;43467;50.890;5.982;2022-11-15T02:30:55;7.63;;;4.68;;
36233;SDS011;43467;50.890;5.982;2022-11-15T02:39:11;6.20;;;4.25;;
36233;SDS011;43467;50.890;5.982;2022-11-15T02:41:48;9.52;;;5.00;;
36233;SDS011;43467;50.890;5.982;2022-11-15T02:44:21;9.88;;;5.30;;
36233;SDS011;43467;50.890;5.982;2022-11-15T02:46:52;6.28;;;4.32;;
36233;SDS011;43467;50.890;5.982;2022-11-15T02:49:50;5.70;;;4.53;;
36233;SDS011;43467;50.890;5.982;2022-11-15T02:52:19;6.53;;;4.32;;
36233;SDS011;43467;50.890;5.982;2022-11-15T02:54:53;6.90;;;5.00;;
36233;SDS011;43467;50.890;5.982;2022-11-15T02:57:33;7.13;;;4.78;;
36233;SDS011;43467;50.890;5.982;2022-11-15T03:00:04;10.38;;;4.70;;
36233;SDS011;43467;50.890;5.982;2022-11-15T03:15:57;7.05;;;4.97;;
36233;SDS011;43467;50.890;5.982;2022-11-15T03:18:45;7.03;;;5.15;;
36233;SDS011;43467;50.890;5.982;2022-11-15T03:21:16;9.15;;;5.20;;
36233;SDS011;43467;50.890;5.982;2022-11-15T03:23:46;8.68;;;5.45;;
36233;SDS011;43467;50.890;5.982;2022-11-15T03:26:13;7.47;;;5.60;;
36233;SDS011;43467;50.890;5.982;2022-11-15T03:31:15;8.90;;;5.10;;
36233;SDS011;43467;50.890;5.982;2022-11-15T03:34:00;7.82;;;5.20;;
36233;SDS011;43467;50.890;5.982;2022-11-15T03:36:30;6.90;;;4.82;;
36233;SDS011;43467;50.890;5.982;2022-11-15T03:38:59;6.15;;;5.13;;
36233;SDS011;43467;50.890;5.982;2022-11-15T03:44:06;7.28;;;5.00;;
36233;SDS011;43467;50.890;5.982;2022-11-15T03:46:43;5.97;;;4.55;;
36233;SDS011;43467;50.890;5.982;2022-11-15T03:49:20;8.60;;;4.93;;
36233;SDS011;43467;50.890;5.982;2022-11-15T03:51:50;6.35;;;4.57;;
36233;SDS011;43467;50.890;5.982;2022-11-15T03:54:16;4.70;;;3.85;;
36233;SDS011;43467;50.890;5.982;2022-11-15T03:56:41;4.57;;;3.83;;
36233;SDS011;43467;50.890;5.982;2022-11-15T03:59:07;6.05;;;4.90;;
36233;SDS011;43467;50.890;5.982;2022-11-15T04:01:32;5.95;;;4.93;;
36233;SDS011;43467;50.890;5.982;2022-11-15T04:03:57;7.95;;;4.70;;
36233;SDS011;43467;50.890;5.982;2022-11-15T04:06:23;9.02;;;4.93;;
36233;SDS011;43467;50.890;5.982;2022-11-15T04:08:48;7.50;;;4.88;;
36233;SDS011;43467;50.890;5.982;2022-11-15T04:11:13;8.27;;;4.40;;
36233;SDS011;43467;50.890;5.982;2022-11-15T04:13:39;6.18;;;4.18;;
36233;SDS011;43467;50.890;5.982;2022-11-15T04:16:04;6.55;;;4.93;;
36233;SDS011;43467;50.890;5.982;2022-11-15T04:18:30;7.18;;;3.92;;
36233;SDS011;43467;50.890;5.982;2022-11-15T04:20:55;4.35;;;3.70;;
36233;SDS011;43467;50.890;5.982;2022-11-15T04:23:39;6.60;;;4.43;;
36233;SDS011;43467;50.890;5.982;2022-11-15T04:26:20;4.90;;;4.35;;
36233;SDS011;43467;50.890;5.982;2022-11-15T04:28:47;4.88;;;3.88;;
36233;SDS011;43467;50.890;5.982;2022-11-15T04:31:31;4.95;;;4.43;;
36233;SDS011;43467;50.890;5.982;2022-11-15T04:33:57;5.70;;;3.60;;
36233;SDS011;43467;50.890;5.982;2022-11-15T04:36:22;3.85;;;3.20;;
36233;SDS011;43467;50.890;5.982;2022-11-15T04:39:06;5.57;;;3.67;;
36233;SDS011;43467;50.890;5.982;2022-11-15T04:41:32;3.35;;;3.05;;
36233;SDS011;43467;50.890;5.982;2022-11-15T04:43:57;3.78;;;3.13;;
36233;SDS011;43467;50.890;5.982;2022-11-15T04:46:23;3.58;;;3.08;;
36233;SDS011;43467;50.890;5.982;2022-11-15T04:48:50;2.75;;;2.47;;
36233;SDS011;43467;50.890;5.982;2022-11-15T04:51:15;4.47;;;3.00;;
36233;SDS011;43467;50.890;5.982;2022-11-15T04:53:41;2.78;;;2.30;;
36233;SDS011;43467;50.890;5.982;2022-11-15T04:56:07;3.08;;;2.78;;
36233;SDS011;43467;50.890;5.982;2022-11-15T04:58:32;2.53;;;2.15;;
36233;SDS011;43467;50.890;5.982;2022-11-15T05:00:58;3.00;;;2.40;;
36233;SDS011;43467;50.890;5.982;2022-11-15T05:03:31;3.03;;;2.50;;
36233;SDS011;43467;50.890;5.982;2022-11-15T05:06:15;2.92;;;2.38;;
36233;SDS011;43467;50.890;5.982;2022-11-15T05:08:41;3.53;;;2.22;;
36233;SDS011;43467;50.890;5.982;2022-11-15T05:11:06;2.53;;;1.92;;
36233;SDS011;43467;50.890;5.982;2022-11-15T05:13:31;2.28;;;1.80;;
36233;SDS011;43467;50.890;5.982;2022-11-15T05:15:57;1.60;;;1.50;;
36233;SDS011;43467;50.890;5.982;2022-11-15T05:18:22;1.77;;;1.50;;
36233;SDS011;43467;50.890;5.982;2022-11-15T05:20:47;1.77;;;1.65;;
36233;SDS011;43467;50.890;5.982;2022-11-15T05:23:13;1.58;;;1.40;;
36233;SDS011;43467;50.890;5.982;2022-11-15T05:25:38;1.85;;;1.48;;
36233;SDS011;43467;50.890;5.982;2022-11-15T05:28:03;1.50;;;1.40;;
36233;SDS011;43467;50.890;5.982;2022-11-15T05:30:29;4.60;;;1.60;;
36233;SDS011;43467;50.890;5.982;2022-11-15T05:32:55;1.23;;;1.13;;
36233;SDS011;43467;50.890;5.982;2022-11-15T05:35:30;4.57;;;1.90;;
36233;SDS011;43467;50.890;5.982;2022-11-15T05:38:01;1.92;;;1.30;;
36233;SDS011;43467;50.890;5.982;2022-11-15T05:40:27;1.90;;;1.48;;
36233;SDS011;43467;50.890;5.982;2022-11-15T05:42:54;2.72;;;1.45;;
36233;SDS011;43467;50.890;5.982;2022-11-15T05:45:21;1.52;;;1.35;;
36233;SDS011;43467;50.890;5.982;2022-11-15T05:47:46;1.67;;;1.40;;
36233;SDS011;43467;50.890;5.982;2022-11-15T05:50:14;2.05;;;1.33;;
36233;SDS011;43467;50.890;5.982;2022-11-15T05:52:42;2.67;;;1.48;;
36233;SDS011;43467;50.890;5.982;2022-11-15T05:55:09;2.35;;;1.40;;
36233;SDS011;43467;50.890;5.982;2022-11-15T05:57:35;1.10;;;1.00;;
36233;SDS011;43467;50.890;5.982;2022-11-15T06:00:01;2.92;;;1.17;;
36233;SDS011;43467;50.890;5.982;2022-11-15T06:02:28;1.55;;;1.10;;
36233;SDS011;43467;50.890;5.982;2022-11-15T06:04:53;1.77;;;1.20;;
36233;SDS011;43467;50.890;5.982;2022-11-15T06:07:18;1.90;;;1.30;;
36233;SDS011;43467;50.890;5.982;2022-11-15T06:09:44;1.88;;;1.38;;
36233;SDS011;43467;50.890;5.982;2022-11-15T06:12:09;2.97;;;1.30;;
36233;SDS011;43467;50.890;5.982;2022-11-15T06:14:34;12.10;;;2.05;;
36233;SDS011;43467;50.890;5.982;2022-11-15T06:17:00;2.30;;;1.50;;
36233;SDS011;43467;50.890;5.982;2022-11-15T06:19:25;2.55;;;1.80;;
36233;SDS011;43467;50.890;5.982;2022-11-15T06:21:50;3.80;;;1.73;;
36233;SDS011;43467;50.890;5.982;2022-11-15T06:24:16;1.60;;;1.10;;
36233;SDS011;43467;50.890;5.982;2022-11-15T06:26:41;1.98;;;1.40;;
36233;SDS011;43467;50.890;5.982;2022-11-15T06:29:06;2.22;;;1.20;;
36233;SDS011;43467;50.890;5.982;2022-11-15T06:31:33;5.38;;;1.48;;
36233;SDS011;43467;50.890;5.982;2022-11-15T06:33:59;1.98;;;1.20;;
36233;SDS011;43467;50.890;5.982;2022-11-15T06:36:24;4.70;;;1.40;;
36233;SDS011;43467;50.890;5.982;2022-11-15T06:38:50;6.18;;;1.65;;
36233;SDS011;43467;50.890;5.982;2022-11-15T06:41:15;4.35;;;1.77;;
36233;SDS011;43467;50.890;5.982;2022-11-15T06:43:42;3.00;;;1.77;;
36233;SDS011;43467;50.890;5.982;2022-11-15T06:46:07;2.47;;;1.60;;
36233;SDS011;43467;50.890;5.982;2022-11-15T06:48:33;2.17;;;1.90;;
36233;SDS011;43467;50.890;5.982;2022-11-15T06:50:59;4.03;;;2.13;;
36233;SDS011;43467;50.890;5.982;2022-11-15T06:53:26;2.00;;;1.60;;
36233;SDS011;43467;50.890;5.982;2022-11-15T06:55:52;2.75;;;1.70;;
36233;SDS011;43467;50.890;5.982;2022-11-15T06:58:18;2.38;;;1.48;;
36233;SDS011;43467;50.890;5.982;2022-11-15T07:00:45;4.00;;;1.70;;
36233;SDS011;43467;50.890;5.982;2022-11-15T07:03:10;3.50;;;1.70;;
36233;SDS011;43467;50.890;5.982;2022-11-15T07:05:36;4.07;;;1.52;;
36233;SDS011;43467;50.890;5.982;2022-11-15T07:08:01;2.45;;;1.40;;
36233;SDS011;43467;50.890;5.982;2022-11-15T07:10:27;2.22;;;1.40;;
36233;SDS011;43467;50.890;5.982;2022-11-15T07:12:54;1.67;;;1.25;;
36233;SDS011;43467;50.890;5.982;2022-11-15T07:15:21;3.60;;;1.40;;
36233;SDS011;43467;50.890;5.982;2022-11-15T07:17:48;5.40;;;1.48;;
36233;SDS011;43467;50.890;5.982;2022-11-15T07:20:14;2.83;;;1.42;;
36233;SDS011;43467;50.890;5.982;2022-11-15T07:22:40;1.95;;;1.30;;
36233;SDS011;43467;50.890;5.982;2022-11-15T07:25:06;1.52;;;1.35;;
36233;SDS011;43467;50.890;5.982;2022-11-15T07:27:32;4.57;;;1.55;;
36233;SDS011;43467;50.890;5.982;2022-11-15T07:29:57;2.10;;;1.40;;
36233;SDS011;43467;50.890;5.982;2022-11-15T07:32:23;3.60;;;1.60;;
36233;SDS011;43467;50.890;5.982;2022-11-15T07:34:48;3.83;;;1.70;;
36233;SDS011;43467;50.890;5.982;2022-11-15T07:37:13;2.17;;;1.48;;
36233;SDS011;43467;50.890;5.982;2022-11-15T07:39:39;2.97;;;1.60;;
36233;SDS011;43467;50.890;5.982;2022-11-15T07:42:04;5.65;;;1.85;;
36233;SDS011;43467;50.890;5.982;2022-11-15T07:44:49;5.40;;;2.10;;
36233;SDS011;43467;50.890;5.982;2022-11-15T07:47:14;4.25;;;1.30;;
36233;SDS011;43467;50.890;5.982;2022-11-15T07:49:40;4.18;;;1.77;;
36233;SDS011;43467;50.890;5.982;2022-11-15T07:52:05;3.20;;;1.80;;
36233;SDS011;43467;50.890;5.982;2022-11-15T07:54:30;2.40;;;1.30;;
36233;SDS011;43467;50.890;5.982;2022-11-15T07:56:56;3.78;;;1.23;;
36233;SDS011;43467;50.890;5.982;2022-11-15T07:59:21;7.72;;;2.05;;
36233;SDS011;43467;50.890;5.982;2022-11-15T08:01:47;4.35;;;1.50;;
36233;SDS011;43467;50.890;5.982;2022-11-15T08:04:12;3.08;;;1.50;;
36233;SDS011;43467;50.890;5.982;2022-11-15T08:06:38;3.15;;;1.20;;
36233;SDS011;43467;50.890;5.982;2022-11-15T08:09:03;2.88;;;1.63;;
36233;SDS011;43467;50.890;5.982;2022-11-15T08:11:28;3.95;;;1.45;;
36233;SDS011;43467;50.890;5.982;2022-11-15T08:13:54;2.60;;;1.33;;
36233;SDS011;43467;50.890;5.982;2022-11-15T08:16:19;2.15;;;1.20;;
36233;SDS011;43467;50.890;5.982;2022-11-15T08:18:45;7.35;;;1.80;;
36233;SDS011;43467;50.890;5.982;2022-11-15T08:21:11;5.07;;;1.67;;
36233;SDS011;43467;50.890;5.982;2022-11-15T08:23:43;4.05;;;1.38;;
36233;SDS011;43467;50.890;5.982;2022-11-15T08:26:08;5.30;;;2.38;;
36233;SDS011;43467;50.890;5.982;2022-11-15T08:28:34;4.63;;;1.65;;
36233;SDS011;43467;50.890;5.982;2022-11-15T08:30:59;6.03;;;1.70;;
36233;SDS011;43467;50.890;5.982;2022-11-15T08:33:25;2.67;;;1.40;;
36233;SDS011;43467;50.890;5.982;2022-11-15T08:35:50;5.00;;;1.70;;
36233;SDS011;43467;50.890;5.982;2022-11-15T08:38:16;5.05;;;1.40;;
36233;SDS011;43467;50.890;5.982;2022-11-15T08:40:41;3.38;;;1.30;;
36233;SDS011;43467;50.890;5.982;2022-11-15T08:43:06;8.50;;;2.30;;
36233;SDS011;43467;50.890;5.982;2022-11-15T08:45:33;5.65;;;1.40;;
36233;SDS011;43467;50.890;5.982;2022-11-15T08:48:03;5.28;;;1.40;;
36233;SDS011;43467;50.890;5.982;2022-11-15T08:50:28;3.55;;;1.70;;
36233;SDS011;43467;50.890;5.982;2022-11-15T08:52:54;2.33;;;1.33;;
36233;SDS011;43467;50.890;5.982;2022-11-15T08:55:19;3.30;;;1.50;;
36233;SDS011;43467;50.890;5.982;2022-11-15T08:57:44;4.90;;;1.75;;
36233;SDS011;43467;50.890;5.982;2022-11-15T09:00:11;5.60;;;1.60;;
36233;SDS011;43467;50.890;5.982;2022-11-15T09:02:38;3.83;;;1.83;;
36233;SDS011;43467;50.890;5.982;2022-11-15T09:05:04;6.28;;;1.65;;
36233;SDS011;43467;50.890;5.982;2022-11-15T09:07:30;6.07;;;1.85;;
36233;SDS011;43467;50.890;5.982;2022-11-15T09:09:56;7.65;;;1.65;;
36233;SDS011;43467;50.890;5.982;2022-11-15T09:12:22;3.85;;;1.40;;
36233;SDS011;43467;50.890;5.982;2022-11-15T09:14:47;4.38;;;1.40;;
36233;SDS011;43467;50.890;5.982;2022-11-15T09:17:13;3.47;;;1.48;;
36233;SDS011;43467;50.890;5.982;2022-11-15T09:19:38;6.72;;;1.67;;
36233;SDS011;43467;50.890;5.982;2022-11-15T09:22:06;6.45;;;1.50;;
36233;SDS011;43467;50.890;5.982;2022-11-15T09:24:33;3.22;;;1.77;;
36233;SDS011;43467;50.890;5.982;2022-11-15T09:26:59;3.88;;;1.23;;
36233;SDS011;43467;50.890;5.982;2022-11-15T09:29:24;3.53;;;1.08;;
36233;SDS011;43467;50.890;5.982;2022-11-15T09:31:51;4.05;;;1.48;;
36233;SDS011;43467;50.890;5.982;2022-11-15T09:34:17;5.05;;;1.67;;
36233;SDS011;43467;50.890;5.982;2022-11-15T09:36:43;7.28;;;1.52;;
36233;SDS011;43467;50.890;5.982;2022-11-15T09:39:08;4.40;;;1.38;;
36233;SDS011;43467;50.890;5.982;2022-11-15T09:44:21;4.55;;;1.50;;
36233;SDS011;43467;50.890;5.982;2022-11-15T09:50:06;5.18;;;1.60;;
36233;SDS011;43467;50.890;5.982;2022-11-15T09:52:35;8.05;;;2.42;;
36233;SDS011;43467;50.890;5.982;2022-11-15T09:55:02;3.97;;;1.50;;
36233;SDS011;43467;50.890;5.982;2022-11-15T09:57:41;4.90;;;1.48;;
36233;SDS011;43467;50.890;5.982;2022-11-15T10:00:22;2.00;;;1.20;;
36233;SDS011;43467;50.890;5.982;2022-11-15T10:03:11;2.85;;;1.52;;
36233;SDS011;43467;50.890;5.982;2022-11-15T10:05:44;3.50;;;1.50;;
36233;SDS011;43467;50.890;5.982;2022-11-15T10:11:26;7.13;;;1.83;;
36233;SDS011;43467;50.890;5.982;2022-11-15T10:13:55;4.13;;;1.40;;
36233;SDS011;43467;50.890;5.982;2022-11-15T10:24:30;7.00;;;1.90;;
36233;SDS011;43467;50.890;5.982;2022-11-15T10:27:00;2.78;;;1.20;;
36233;SDS011;43467;50.890;5.982;2022-11-15T10:29:25;4.75;;;1.45;;
36233;SDS011;43467;50.890;5.982;2022-11-15T10:31:51;2.75;;;1.30;;
36233;SDS011;43467;50.890;5.982;2022-11-15T10:34:21;4.78;;;1.30;;
36233;SDS011;43467;50.890;5.982;2022-11-15T10:36:55;5.15;;;1.25;;
36233;SDS011;43467;50.890;5.982;2022-11-15T10:39:22;5.63;;;1.50;;
36233;SDS011;43467;50.890;5.982;2022-11-15T10:41:48;4.22;;;1.50;;
36233;SDS011;43467;50.890;5.982;2022-11-15T10:46:42;5.53;;;1.27;;
36233;SDS011;43467;50.890;5.982;2022-11-15T10:49:18;7.72;;;1.30;;
36233;SDS011;43467;50.890;5.982;2022-11-15T10:54:17;4.00;;;1.25;;
36233;SDS011;43467;50.890;5.982;2022-11-15T10:56:50;4.53;;;1.35;;
36233;SDS011;43467;50.890;5.982;2022-11-15T10:59:21;2.85;;;1.13;;
36233;SDS011;43467;50.890;5.982;2022-11-15T11:01:53;5.38;;;1.40;;
36233;SDS011;43467;50.890;5.982;2022-11-15T11:04:18;2.55;;;1.10;;
36233;SDS011;43467;50.890;5.982;2022-11-15T11:06:57;5.05;;;1.50;;
36233;SDS011;43467;50.890;5.982;2022-11-15T11:09:37;1.75;;;1.20;;
36233;SDS011;43467;50.890;5.982;2022-11-15T11:12:04;8.35;;;1.83;;
36233;SDS011;43467;50.890;5.982;2022-11-15T11:14:35;2.17;;;1.15;;
36233;SDS011;43467;50.890;5.982;2022-11-15T11:17:10;4.10;;;1.10;;
36233;SDS011;43467;50.890;5.982;2022-11-15T11:30:10;6.82;;;1.40;;
36233;SDS011;43467;50.890;5.982;2022-11-15T11:32:46;4.32;;;1.40;;
36233;SDS011;43467;50.890;5.982;2022-11-15T11:35:20;2.33;;;1.17;;
36233;SDS011;43467;50.890;5.982;2022-11-15T11:37:53;2.22;;;1.33;;
36233;SDS011;43467;50.890;5.982;2022-11-15T11:46:22;5.40;;;1.38;;
36233;SDS011;43467;50.890;5.982;2022-11-15T11:49:09;3.38;;;1.17;;
36233;SDS011;43467;50.890;5.982;2022-11-15T12:00:26;7.40;;;1.73;;
36233;SDS011;43467;50.890;5.982;2022-11-15T12:03:09;7.30;;;1.67;;
36233;SDS011;43467;50.890;5.982;2022-11-15T12:11:05;4.32;;;1.58;;
36233;SDS011;43467;50.890;5.982;2022-11-15T12:13:53;5.80;;;1.73;;
36233;SDS011;43467;50.890;5.982;2022-11-15T12:16:26;3.10;;;1.52;;
36233;SDS011;43467;50.890;5.982;2022-11-15T12:18:53;3.08;;;1.33;;
36233;SDS011;43467;50.890;5.982;2022-11-15T12:21:25;3.65;;;1.40;;
36233;SDS011;43467;50.890;5.982;2022-11-15T12:26:42;4.07;;;1.60;;
36233;SDS011;43467;50.890;5.982;2022-11-15T12:29:25;3.53;;;1.30;;
36233;SDS011;43467;50.890;5.982;2022-11-15T12:31:56;5.18;;;1.38;;
36233;SDS011;43467;50.890;5.982;2022-11-15T12:36:53;3.92;;;1.50;;
36233;SDS011;43467;50.890;5.982;2022-11-15T12:39:19;9.25;;;1.73;;
36233;SDS011;43467;50.890;5.982;2022-11-15T12:56:57;4.95;;;1.48;;
36233;SDS011;43467;50.890;5.982;2022-11-15T13:02:36;3.28;;;1.60;;
36233;SDS011;43467;50.890;5.982;2022-11-15T13:17:37;6.10;;;1.95;;
36233;SDS011;43467;50.890;5.982;2022-11-15T13:33:55;3.38;;;1.60;;
36233;SDS011;43467;50.890;5.982;2022-11-15T13:38:35;4.82;;;1.80;;
36233;SDS011;43467;50.890;5.982;2022-11-15T13:41:21;2.17;;;1.40;;
36233;SDS011;43467;50.890;5.982;2022-11-15T13:43:49;4.80;;;1.33;;
36233;SDS011;43467;50.890;5.982;2022-11-15T13:48:43;5.75;;;1.50;;
36233;SDS011;43467;50.890;5.982;2022-11-15T13:51:15;3.60;;;1.50;;
36233;SDS011;43467;50.890;5.982;2022-11-15T13:56:37;8.27;;;1.80;;
36233;SDS011;43467;50.890;5.982;2022-11-15T13:59:10;4.65;;;2.13;;
36233;SDS011;43467;50.890;5.982;2022-11-15T14:01:41;4.82;;;1.55;;
36233;SDS011;43467;50.890;5.982;2022-11-15T14:04:10;5.32;;;1.40;;
36233;SDS011;43467;50.890;5.982;2022-11-15T14:06:43;8.15;;;1.60;;
36233;SDS011;43467;50.890;5.982;2022-11-15T14:11:36;3.67;;;2.08;;
36233;SDS011;43467;50.890;5.982;2022-11-15T14:14:14;4.78;;;2.28;;
36233;SDS011;43467;50.890;5.982;2022-11-15T14:16:47;3.78;;;1.70;;
36233;SDS011;43467;50.890;5.982;2022-11-15T14:25:05;4.05;;;1.80;;
36233;SDS011;43467;50.890;5.982;2022-11-15T14:27:44;3.78;;;1.70;;
36233;SDS011;43467;50.890;5.982;2022-11-15T14:30:29;3.53;;;1.60;;
36233;SDS011;43467;50.890;5.982;2022-11-15T14:32:55;4.45;;;1.88;;
36233;SDS011;43467;50.890;5.982;2022-11-15T14:35:21;3.25;;;2.28;;
36233;SDS011;43467;50.890;5.982;2022-11-15T14:37:47;3.08;;;1.80;;
36233;SDS011;43467;50.890;5.982;2022-11-15T14:40:14;4.72;;;2.15;;
36233;SDS011;43467;50.890;5.982;2022-11-15T14:42:43;2.38;;;1.63;;
36233;SDS011;43467;50.890;5.982;2022-11-15T14:47:42;4.15;;;1.80;;
36233;SDS011;43467;50.890;5.982;2022-11-15T14:50:11;6.45;;;2.25;;
36233;SDS011;43467;50.890;5.982;2022-11-15T14:52:41;3.80;;;1.77;;
36233;SDS011;43467;50.890;5.982;2022-11-15T14:57:47;3.88;;;2.03;;
36233;SDS011;43467;50.890;5.982;2022-11-15T15:00:13;3.30;;;1.70;;
36233;SDS011;43467;50.890;5.982;2022-11-15T15:02:40;3.25;;;1.83;;
36233;SDS011;43467;50.890;5.982;2022-11-15T15:05:18;2.97;;;1.70;;
36233;SDS011;43467;50.890;5.982;2022-11-15T15:07:44;4.85;;;1.75;;
36233;SDS011;43467;50.890;5.982;2022-11-15T15:10:10;5.03;;;1.80;;
36233;SDS011;43467;50.890;5.982;2022-11-15T15:12:36;4.00;;;2.00;;
36233;SDS011;43467;50.890;5.982;2022-11-15T15:15:02;2.42;;;1.85;;
36233;SDS011;43467;50.890;5.982;2022-11-15T15:17:28;6.38;;;2.13;;
36233;SDS011;43467;50.890;5.982;2022-11-15T15:19:54;3.58;;;1.92;;
36233;SDS011;43467;50.890;5.982;2022-11-15T15:22:19;2.03;;;1.60;;
36233;SDS011;43467;50.890;5.982;2022-11-15T15:24:47;2.63;;;1.70;;
36233;SDS011;43467;50.890;5.982;2022-11-15T15:27:13;3.28;;;2.00;;
36233;SDS011;43467;50.890;5.982;2022-11-15T15:29:39;2.42;;;1.92;;
36233;SDS011;43467;50.890;5.982;2022-11-15T15:32:04;2.67;;;1.85;;
36233;SDS011;43467;50.890;5.982;2022-11-15T15:34:30;2.30;;;1.65;;
36233;SDS011;43467;50.890;5.982;2022-11-15T15:37:19;2.47;;;1.88;;
36233;SDS011;43467;50.890;5.982;2022-11-15T15:39:48;3.15;;;1.85;;
36233;SDS011;43467;50.890;5.982;2022-11-15T15:42:13;2.83;;;1.75;;
36233;SDS011;43467;50.890;5.982;2022-11-15T15:44:39;3.05;;;1.80;;
36233;SDS011;43467;50.890;5.982;2022-11-15T15:47:09;5.95;;;1.55;;
36233;SDS011;43467;50.890;5.982;2022-11-15T15:49:37;3.80;;;1.95;;
36233;SDS011;43467;50.890;5.982;2022-11-15T15:52:02;4.65;;;1.90;;
36233;SDS011;43467;50.890;5.982;2022-11-15T15:54:28;5.90;;;2.67;;
36233;SDS011;43467;50.890;5.982;2022-11-15T15:56:53;4.80;;;2.15;;
36233;SDS011;43467;50.890;5.982;2022-11-15T15:59:18;4.70;;;2.05;;
36233;SDS011;43467;50.890;5.982;2022-11-15T16:01:44;4.95;;;2.33;;
36233;SDS011;43467;50.890;5.982;2022-11-15T16:04:09;3.53;;;1.98;;
36233;SDS011;43467;50.890;5.982;2022-11-15T16:09:02;3.03;;;1.80;;
36233;SDS011;43467;50.890;5.982;2022-11-15T16:11:28;2.97;;;1.80;;
36233;SDS011;43467;50.890;5.982;2022-11-15T16:13:53;3.33;;;1.65;;
36233;SDS011;43467;50.890;5.982;2022-11-15T16:16:19;2.85;;;1.92;;
36233;SDS011;43467;50.890;5.982;2022-11-15T16:18:46;2.58;;;1.70;;
36233;SDS011;43467;50.890;5.982;2022-11-15T16:21:11;2.75;;;1.52;;
36233;SDS011;43467;50.890;5.982;2022-11-15T16:23:37;4.15;;;2.00;;
36233;SDS011;43467;50.890;5.982;2022-11-15T16:26:06;1.98;;;1.77;;
36233;SDS011;43467;50.890;5.982;2022-11-15T16:28:43;2.25;;;1.98;;
36233;SDS011;43467;50.890;5.982;2022-11-15T16:31:09;2.67;;;1.90;;
36233;SDS011;43467;50.890;5.982;2022-11-15T16:33:35;4.50;;;1.95;;
36233;SDS011;43467;50.890;5.982;2022-11-15T16:36:02;3.42;;;2.28;;
36233;SDS011;43467;50.890;5.982;2022-11-15T16:38:28;3.60;;;2.30;;
36233;SDS011;43467;50.890;5.982;2022-11-15T16:40:54;3.40;;;1.77;;
36233;SDS011;43467;50.890;5.982;2022-11-15T16:43:19;4.82;;;2.83;;
36233;SDS011;43467;50.890;5.982;2022-11-15T16:45:44;5.50;;;2.60;;
36233;SDS011;43467;50.890;5.982;2022-11-15T16:48:17;5.63;;;2.70;;
36233;SDS011;43467;50.890;5.982;2022-11-15T16:50:47;6.70;;;2.88;;
36233;SDS011;43467;50.890;5.982;2022-11-15T16:53:12;3.72;;;1.98;;
36233;SDS011;43467;50.890;5.982;2022-11-15T16:55:37;4.75;;;2.13;;
36233;SDS011;43467;50.890;5.982;2022-11-15T16:58:03;4.53;;;2.80;;
36233;SDS011;43467;50.890;5.982;2022-11-15T17:00:28;5.18;;;2.50;;
36233;SDS011;43467;50.890;5.982;2022-11-15T17:02:53;6.40;;;2.85;;
36233;SDS011;43467;50.890;5.982;2022-11-15T17:05:21;3.45;;;2.55;;
36233;SDS011;43467;50.890;5.982;2022-11-15T17:07:47;4.82;;;2.55;;
36233;SDS011;43467;50.890;5.982;2022-11-15T17:10:14;3.30;;;2.50;;
36233;SDS011;43467;50.890;5.982;2022-11-15T17:12:40;4.35;;;2.38;;
36233;SDS011;43467;50.890;5.982;2022-11-15T17:15:06;4.70;;;2.47;;
36233;SDS011;43467;50.890;5.982;2022-11-15T17:17:32;4.55;;;2.95;;
36233;SDS011;43467;50.890;5.982;2022-11-15T17:19:57;4.72;;;2.70;;
36233;SDS011;43467;50.890;5.982;2022-11-15T17:22:23;5.15;;;2.97;;
36233;SDS011;43467;50.890;5.982;2022-11-15T17:24:48;7.00;;;2.95;;
36233;SDS011;43467;50.890;5.982;2022-11-15T17:27:14;3.60;;;2.80;;
36233;SDS011;43467;50.890;5.982;2022-11-15T17:29:39;4.63;;;2.58;;
36233;SDS011;43467;50.890;5.982;2022-11-15T17:32:05;5.55;;;3.58;;